Time;durP1;ratioP1;P1;durP2;ratioP2;P2;SDS_P1;SDS_P2;PMS_P1;PMS_P2;Temp;Humidity;BMP_temperature;BMP_pressure;BME280_temperature;BME280_humidity;BME280_pressure;Samples;Min_cycle;Max_cycle;Signal;HPM_P1;HPM_P2
2021/03/05 12:01:36;;;;;;;8.83;3.08;;;;;;;5.93;58.17;101404.23;5074861;56;46163;-78
2021/03/05 12:06:41;;;;;;;13.87;3.67;;;;;;;6.06;57.07;101411.56;4993719;58;1130444;-80
2021/03/05 12:11:47;;;;;;;18.13;6.93;;;;;;;5.92;56.51;101420.91;5018260;56;1136756;-77
2021/03/05 12:16:52;;;;;;;8.10;3.40;;;;;;;5.80;56.35;101416.63;5024649;56;1136633;-82
2021/03/05 12:21:58;;;;;;;9.27;3.23;;;;;;;5.68;53.75;101414.05;4922952;58;1134469;-78
2021/03/05 12:27:05;;;;;;;8.20;3.80;;;;;;;5.47;54.38;101405.80;4886413;58;1134442;-80
2021/03/05 12:32:11;;;;;;;17.83;7.23;;;;;;;5.29;54.64;101416.14;4976854;57;1134411;-76
2021/03/05 12:37:17;;;;;;;67.17;29.27;;;;;;;5.24;54.87;101420.71;4978124;57;1136909;-79
2021/03/05 12:42:23;;;;;;;64.97;31.03;;;;;;;5.19;53.34;101423.14;4982833;57;1138829;-81
2021/03/05 12:47:28;;;;;;;26.25;11.78;;;;;;;4.94;53.16;101420.64;4981197;57;1138974;-83
2021/03/05 12:52:34;;;;;;;17.97;8.93;;;;;;;5.06;53.71;101425.84;4969837;57;1139304;-79
2021/03/05 12:57:40;;;;;;;13.18;5.53;;;;;;;5.42;55.60;101432.22;4969472;57;1137247;-79
2021/03/05 13:02:46;;;;;;;10.77;2.83;;;;;;;5.96;54.62;101432.95;4903072;58;1137270;-77
2021/03/05 13:07:52;;;;;;;4.97;2.03;;;;;;;6.30;53.07;101444.59;4927140;58;1136816;-78
2021/03/05 13:12:58;;;;;;;0.87;0.80;;;;;;;6.18;54.42;101452.57;4958397;58;1134673;-80
2021/03/05 13:18:04;;;;;;;5.70;2.00;;;;;;;5.79;55.08;101448.59;4955067;58;1134553;-78
2021/03/05 13:23:10;;;;;;;9.10;4.43;;;;;;;5.49;56.04;101452.50;4960368;58;1134516;-77
2021/03/05 13:28:17;;;;;;;11.97;1.73;;;;;;;5.38;57.16;101453.38;4948145;58;1134753;-79
2021/03/05 13:33:23;;;;;;;35.43;13.80;;;;;;;5.32;57.08;101455.81;4931725;58;1136755;-78
2021/03/05 13:38:29;;;;;;;41.77;15.60;;;;;;;5.27;56.98;101452.06;4915338;58;1138762;-80
2021/03/05 13:43:35;;;;;;;8.93;3.17;;;;;;;5.29;57.00;101448.06;4923025;58;1138889;-79
2021/03/05 13:48:44;;;;;;;23.95;9.08;;;;;;;5.36;57.86;101456.06;4946747;57;1135000;-79
2021/03/05 13:53:50;;;;;;;22.97;8.87;;;;;;;5.63;56.97;101454.94;4918562;58;1137043;-80
2021/03/05 13:58:56;;;;;;;5.57;2.00;;;;;;;5.82;54.38;101447.58;4938573;57;1137057;-79
2021/03/05 14:04:02;;;;;;;3.27;2.10;;;;;;;6.01;49.58;101453.77;4966203;57;1134701;-77
2021/03/05 14:09:07;;;;;;;5.07;2.30;;;;;;;6.01;48.22;101445.89;5020027;57;1134415;-81
2021/03/05 14:14:13;;;;;;;2.87;1.10;;;;;;;6.03;47.46;101448.00;4979588;58;1134996;-77
2021/03/05 14:19:18;;;;;;;5.97;3.20;;;;;;;6.09;48.09;101449.05;5012902;57;1134926;-77
2021/03/05 14:24:24;;;;;;;5.60;3.93;;;;;;;6.24;50.59;101460.66;5068196;57;1134692;-86
2021/03/05 14:29:29;;;;;;;12.33;6.13;;;;;;;6.22;47.74;101471.23;4997292;58;1134976;-80
2021/03/05 14:34:36;;;;;;;10.03;4.78;;;;;;;5.94;49.00;101493.91;5044559;57;1137065;-77
2021/03/05 14:39:41;;;;;;;20.43;7.80;;;;;;;5.72;49.47;101496.99;5067329;57;1137208;-78
2021/03/05 14:44:47;;;;;;;15.38;7.10;;;;;;;5.50;50.58;101504.88;5060975;57;1136890;-77
2021/03/05 14:49:52;;;;;;;21.53;9.50;;;;;;;5.24;49.83;101509.02;4949884;58;1136960;-77
2021/03/05 14:54:58;;;;;;;4.80;2.53;;;;;;;5.19;51.61;101503.98;5041511;56;1136729;-77
2021/03/05 15:00:06;;;;;;;5.63;3.40;;;;;;;5.43;50.94;101500.82;5132008;56;1134834;-81
2021/03/05 15:05:12;;;;;;;37.80;15.40;;;;;;;5.62;50.35;101499.16;5121909;56;1135073;-77
2021/03/05 15:10:18;;;;;;;8.33;3.60;;;;;;;5.80;49.04;101496.23;5106889;56;1138942;-80
2021/03/05 15:15:26;;;;;;;10.17;6.40;;;;;;;5.87;49.13;101491.09;5120213;56;1134752;-78
2021/03/05 15:20:31;;;;;;;11.23;5.93;;;;;;;5.91;49.57;101497.11;5149197;56;1137278;-78
2021/03/05 15:25:37;;;;;;;3.17;2.35;;;;;;;6.09;48.08;101502.03;5133161;56;1137017;-79
2021/03/05 15:30:42;;;;;;;6.85;3.33;;;;;;;6.35;45.83;101499.11;5148698;56;1134983;-77
2021/03/05 15:35:48;;;;;;;5.12;3.60;;;;;;;5.92;45.57;101529.87;5160213;56;1134770;-77
2021/03/05 15:40:54;;;;;;;6.53;3.53;;;;;;;6.18;47.27;101527.43;5160163;56;1135133;-78
2021/03/05 15:46:00;;;;;;;3.72;2.62;;;;;;;5.87;48.63;101526.54;5125966;56;1134741;-77
2021/03/05 15:51:06;;;;;;;2.80;2.10;;;;;;;5.60;47.94;101525.06;5122754;56;1134748;-79
2021/03/05 15:56:13;;;;;;;20.67;5.20;;;;;;;5.35;47.07;101532.23;5147885;56;1134494;-79
2021/03/05 16:01:19;;;;;;;24.53;7.20;;;;;;;5.28;49.22;101538.16;5134103;56;1136835;-79
2021/03/05 16:06:24;;;;;;;5.37;2.80;;;;;;;4.98;49.54;101559.01;5131527;56;1136930;-80
2021/03/05 16:11:31;;;;;;;11.36;4.88;;;;;;;4.72;49.18;101552.13;5136350;56;1134724;-80
2021/03/05 16:16:37;;;;;;;58.80;20.13;;;;;;;4.78;49.96;101559.74;5134347;56;1144026;-78
2021/03/05 16:21:43;;;;;;;304.98;123.33;;;;;;;4.88;50.08;101571.16;5146936;56;1139129;-78
2021/03/05 16:26:49;;;;;;;46.30;20.87;;;;;;;4.71;50.50;101574.00;5147322;56;1143284;-80
2021/03/05 16:31:55;;;;;;;19.80;8.80;;;;;;;4.50;50.91;101585.64;5110975;56;1139522;-78
2021/03/05 16:37:01;;;;;;;14.50;7.30;;;;;;;4.35;51.39;101592.72;5075419;57;1137263;-78
2021/03/05 16:42:06;;;;;;;7.10;2.20;;;;;;;4.16;51.54;101591.63;5075399;57;1136899;-79
2021/03/05 16:47:12;;;;;;;7.23;3.03;;;;;;;3.98;51.49;101602.27;5075900;57;1134778;-78
2021/03/05 16:52:17;;;;;;;10.63;4.60;;;;;;;3.78;51.91;101606.00;5101816;56;1134863;-79
2021/03/05 16:57:23;;;;;;;48.83;7.97;;;;;;;3.63;52.10;101615.20;5142930;56;1137009;-80
2021/03/05 17:02:28;;;;;;;12.63;4.70;;;;;;;3.48;52.41;101627.44;5155678;56;1137031;-78
2021/03/05 17:07:39;;;;;;;10.23;4.03;;;;;;;3.37;52.73;101641.27;5103339;56;1137073;-80
2021/03/05 17:12:46;;;;;;;15.43;5.17;;;;;;;3.20;53.08;101640.94;4981647;58;1136503;-77
2021/03/05 17:17:52;;;;;;;16.47;5.93;;;;;;;3.04;53.53;101647.05;5075623;57;1136569;-78
2021/03/05 17:22:57;;;;;;;224.83;90.67;;;;;;;2.92;53.94;101663.91;4982252;58;1136485;-77
2021/03/05 17:28:03;;;;;;;461.00;237.33;;;;;;;2.81;54.35;101673.36;5113646;56;1140694;-80
2021/03/05 17:33:08;;;;;;;95.90;42.93;;;;;;;2.69;54.93;101680.23;5160234;56;1143434;-78
2021/03/05 17:38:14;;;;;;;345.43;147.90;;;;;;;2.63;55.24;101689.96;5160472;56;1138883;-80
2021/03/05 17:43:20;;;;;;;106.53;46.70;;;;;;;2.55;55.61;101698.02;5159699;56;1143003;-80
2021/03/05 17:48:25;;;;;;;62.87;25.03;;;;;;;2.52;55.94;101706.36;5160651;56;1141003;-79
2021/03/05 17:53:31;;;;;;;79.77;28.03;;;;;;;2.53;56.09;101708.94;5160534;56;1139046;-79
2021/03/05 17:58:37;;;;;;;93.30;35.00;;;;;;;2.52;56.14;101715.05;5160923;56;1138973;-80
2021/03/05 18:03:42;;;;;;;95.20;38.53;;;;;;;2.57;56.47;101718.42;5160825;56;1138911;-78
2021/03/05 18:08:48;;;;;;;80.62;31.60;;;;;;;2.62;56.35;101731.34;5160729;56;1138902;-80
2021/03/05 18:13:54;;;;;;;45.67;21.33;;;;;;;2.70;56.54;101739.85;5160713;56;1139042;-79
2021/03/05 18:18:59;;;;;;;76.70;28.03;;;;;;;2.71;56.25;101738.95;5160671;56;1138614;-82
2021/03/05 18:24:06;;;;;;;52.07;22.10;;;;;;;2.68;56.31;101751.64;5156410;56;1138481;-81
2021/03/05 18:29:13;;;;;;;83.83;29.80;;;;;;;2.73;56.23;101748.92;5122129;56;1138430;-78
2021/03/05 18:34:19;;;;;;;51.50;20.37;;;;;;;2.66;56.25;101761.27;5075669;57;1138514;-80
2021/03/05 18:39:24;;;;;;;79.87;30.07;;;;;;;2.60;56.29;101767.11;5075609;57;1138495;-76
2021/03/05 18:44:29;;;;;;;136.73;57.37;;;;;;;2.55;56.46;101772.88;5075808;57;1138751;-82
2021/03/05 18:49:35;;;;;;;132.90;51.30;;;;;;;2.52;56.58;101780.78;5122050;56;1140553;-81
2021/03/05 18:54:41;;;;;;;72.10;32.03;;;;;;;2.51;56.67;101786.90;5150439;56;1141013;-78
2021/03/05 18:59:46;;;;;;;84.80;38.63;;;;;;;2.56;56.91;101790.27;5150429;56;1138494;-82
2021/03/05 19:04:52;;;;;;;159.63;66.40;;;;;;;2.58;56.84;101795.87;5150985;56;1138343;-82
2021/03/05 19:09:57;;;;;;;121.60;51.47;;;;;;;2.60;56.71;101798.45;5143036;56;1140974;-77
2021/03/05 19:15:05;;;;;;;143.93;60.93;;;;;;;2.54;56.66;101803.81;5161506;56;1141142;-78
2021/03/05 19:20:14;;;;;;;149.55;65.42;;;;;;;2.57;56.92;101809.83;5161459;56;1140819;-77
2021/03/05 19:25:19;;;;;;;95.47;42.70;;;;;;;2.59;56.99;101813.70;5159407;56;1140689;-80
2021/03/05 19:30:26;;;;;;;105.13;44.90;;;;;;;2.60;56.98;101822.78;5090821;56;1138583;-80
2021/03/05 19:35:32;;;;;;;101.97;44.03;;;;;;;2.59;57.11;101832.84;5076053;57;1140964;-76
2021/03/05 19:40:38;;;;;;;57.67;26.37;;;;;;;2.59;57.26;101831.54;5076634;57;1140670;-81
2021/03/05 19:45:43;;;;;;;65.90;27.22;;;;;;;2.57;57.13;101832.47;5076812;57;1138825;-78
2021/03/05 19:50:49;;;;;;;18.07;7.77;;;;;;;2.53;57.12;101853.01;5116348;56;1138650;-80
2021/03/05 19:55:54;;;;;;;33.42;10.00;;;;;;;2.22;56.22;101860.67;5141360;56;1136465;-76
2021/03/05 20:01:00;;;;;;;25.53;8.97;;;;;;;1.99;56.97;101859.83;5141289;56;1138552;-82
2021/03/05 20:06:07;;;;;;;46.53;14.23;;;;;;;1.88;57.13;101869.64;5138136;56;1136790;-77
2021/03/05 20:11:13;;;;;;;42.80;13.93;;;;;;;1.74;57.99;101872.08;5148355;56;1139393;-81
2021/03/05 20:16:18;;;;;;;40.73;14.27;;;;;;;1.74;57.99;101872.08;5141302;56;1139141;-77
2021/03/05 20:21:24;;;;;;;37.30;13.30;;;;;;;1.86;58.55;101884.45;5145201;56;1139150;-78
2021/03/05 20:26:29;;;;;;;33.30;14.13;;;;;;;1.91;58.74;101888.70;5148477;56;1138932;-78
2021/03/05 20:31:36;;;;;;;37.55;14.38;;;;;;;1.92;58.84;101881.30;5162857;56;1138904;-80
2021/03/05 20:36:43;;;;;;;33.98;12.30;;;;;;;1.94;58.98;101885.18;5118854;56;1139171;-78
2021/03/05 20:41:49;;;;;;;47.53;17.80;;;;;;;1.92;59.16;101889.56;5148074;56;1138856;-81
2021/03/05 20:46:54;;;;;;;38.00;16.50;;;;;;;1.89;59.23;101896.14;5151134;56;1138914;-80
2021/03/05 20:52:00;;;;;;;50.43;15.50;;;;;;;1.80;59.24;101905.02;5139138;56;1139117;-82
2021/03/05 20:57:06;;;;;;;61.63;17.47;;;;;;;1.79;59.62;101908.52;5139276;56;1139012;-80
2021/03/05 21:02:12;;;;;;;50.97;16.93;;;;;;;1.79;59.83;101903.30;5149547;56;1139069;-83
2021/03/05 21:07:17;;;;;;;55.47;17.30;;;;;;;1.77;59.71;101901.16;5106378;56;1139117;-76
2021/03/05 21:12:23;;;;;;;42.80;13.57;;;;;;;1.74;59.69;101910.34;5067279;56;1139145;-86
2021/03/05 21:17:28;;;;;;;55.30;13.97;;;;;;;1.72;59.64;101916.89;5148276;56;1139088;-76
2021/03/05 21:22:35;;;;;;;33.90;11.83;;;;;;;1.69;59.71;101918.24;5134509;56;1139084;-83
2021/03/05 21:27:41;;;;;;;38.60;11.97;;;;;;;1.64;59.73;101921.84;5076650;56;1148494;-81
2021/03/05 21:32:46;;;;;;;48.25;15.85;;;;;;;1.58;59.77;101922.80;5125664;56;1138657;-83
2021/03/05 21:37:52;;;;;;;80.62;27.27;;;;;;;1.51;59.93;101926.42;5128309;56;1138613;-75
2021/03/05 21:43:01;;;;;;;96.30;29.13;;;;;;;1.47;60.03;101928.66;5138349;56;1138578;-79
2021/03/05 21:48:07;;;;;;;133.70;43.00;;;;;;;1.44;60.13;101930.01;5137623;56;1138428;-81
2021/03/05 21:53:12;;;;;;;130.37;44.60;;;;;;;1.40;60.33;101942.23;5138543;56;1140717;-80
2021/03/05 21:58:18;;;;;;;111.37;39.83;;;;;;;1.32;60.41;101944.56;5141045;56;1141229;-81
2021/03/05 22:03:23;;;;;;;110.40;36.70;;;;;;;1.23;60.40;101952.51;5141418;56;1141117;-83
2021/03/05 22:08:29;;;;;;;107.07;38.37;;;;;;;1.17;60.56;101950.02;5141386;56;1141285;-83
2021/03/05 22:13:40;;;;;;;112.17;41.00;;;;;;;1.16;60.67;101955.67;5141284;56;1141223;-80
2021/03/05 22:18:42;;;;;;;86.07;33.10;;;;;;;1.14;60.78;101968.30;5140464;56;1141275;-78
2021/03/05 22:23:47;;;;;;;82.72;33.20;;;;;;;1.10;60.76;101977.05;5137109;56;1138865;-80
2021/03/05 22:28:53;;;;;;;69.15;23.87;;;;;;;1.04;60.85;101976.72;5141679;56;1138831;-77
2021/03/05 22:33:58;;;;;;;64.17;21.73;;;;;;;0.98;60.88;101977.66;5141366;56;1138517;-82
2021/03/05 22:39:04;;;;;;;75.27;25.47;;;;;;;0.95;60.97;101981.60;5141563;56;1138439;-80
2021/03/05 22:44:10;;;;;;;80.37;28.37;;;;;;;0.93;61.13;101979.89;5141398;56;1138328;-83
2021/03/05 22:49:16;;;;;;;88.60;31.13;;;;;;;0.89;61.19;101986.05;5141597;56;1138855;-79
2021/03/05 22:54:22;;;;;;;77.63;29.17;;;;;;;0.84;61.45;101986.11;5141201;56;1138446;-86
2021/03/05 22:59:28;;;;;;;76.00;29.17;;;;;;;0.82;61.43;101996.13;5141390;56;1138382;-79
2021/03/05 23:04:34;;;;;;;72.30;27.50;;;;;;;0.80;61.57;102003.09;5141352;56;1138498;-82
2021/03/05 23:09:39;;;;;;;59.17;23.03;;;;;;;0.72;61.36;102002.35;5141639;56;1138899;-82
2021/03/05 23:14:45;;;;;;;58.28;21.10;;;;;;;0.66;61.58;102007.19;5141447;56;1138527;-74
2021/03/05 23:19:50;;;;;;;51.02;18.73;;;;;;;0.61;61.73;102011.14;5141497;56;1138630;-76
2021/03/05 23:24:56;;;;;;;56.48;19.82;;;;;;;0.50;61.48;102013.02;5161249;56;1138593;-74
2021/03/05 23:30:09;;;;;;;38.20;15.03;;;;;;;0.41;61.80;102016.19;5141146;56;1138567;-80
2021/03/05 23:35:19;;;;;;;50.57;15.90;;;;;;;0.42;62.17;102017.91;5140687;56;1138724;-83
2021/03/05 23:40:29;;;;;;;47.13;16.20;;;;;;;0.39;62.04;102025.75;5141071;56;1139327;-80
2021/03/05 23:45:38;;;;;;;33.13;13.13;;;;;;;0.30;62.05;102034.09;5141143;56;1138572;-79
2021/03/05 23:50:47;;;;;;;41.90;16.65;;;;;;;0.26;62.02;102035.00;5141390;56;1144045;-75
2021/03/05 23:55:53;;;;;;;44.13;16.45;;;;;;;0.22;62.23;102036.34;5141074;56;1138502;-80
